sensor_id;sensor_type;location;lat;lon;timestamp;temperature;humidity
80220;DHT22;69535;37.974;23.708;2023-05-07T00:00:00;23.40;37.20
80220;DHT22;69535;37.974;23.708;2023-05-07T00:02:26;23.40;37.20
80220;DHT22;69535;37.974;23.708;2023-05-07T00:04:52;23.40;37.20
80220;DHT22;69535;37.974;23.708;2023-05-07T00:07:18;23.40;37.20
80220;DHT22;69535;37.974;23.708;2023-05-07T00:09:43;23.40;37.20
80220;DHT22;69535;37.974;23.708;2023-05-07T00:12:09;23.40;37.20
80220;DHT22;69535;37.974;23.708;2023-05-07T00:14:35;23.40;37.20
80220;DHT22;69535;37.974;23.708;2023-05-07T00:17:01;23.40;37.20
80220;DHT22;69535;37.974;23.708;2023-05-07T00:19:27;23.40;37.20
80220;DHT22;69535;37.974;23.708;2023-05-07T00:21:52;23.40;37.20
80220;DHT22;69535;37.974;23.708;2023-05-07T00:24:21;23.40;37.30
80220;DHT22;69535;37.974;23.708;2023-05-07T00:26:47;23.40;37.30
80220;DHT22;69535;37.974;23.708;2023-05-07T00:29:13;23.40;37.30
80220;DHT22;69535;37.974;23.708;2023-05-07T00:31:38;23.40;37.30
80220;DHT22;69535;37.974;23.708;2023-05-07T00:34:04;23.40;37.30
80220;DHT22;69535;37.974;23.708;2023-05-07T00:36:30;23.40;37.30
80220;DHT22;69535;37.974;23.708;2023-05-07T00:38:57;23.40;37.30
80220;DHT22;69535;37.974;23.708;2023-05-07T00:41:24;23.40;37.30
80220;DHT22;69535;37.974;23.708;2023-05-07T00:43:50;23.40;37.30
80220;DHT22;69535;37.974;23.708;2023-05-07T00:46:17;23.40;37.30
80220;DHT22;69535;37.974;23.708;2023-05-07T00:48:44;23.40;37.30
80220;DHT22;69535;37.974;23.708;2023-05-07T00:51:11;23.40;37.30
80220;DHT22;69535;37.974;23.708;2023-05-07T00:53:37;23.40;37.30
80220;DHT22;69535;37.974;23.708;2023-05-07T00:56:03;23.40;37.30
80220;DHT22;69535;37.974;23.708;2023-05-07T00:58:29;23.40;37.30
80220;DHT22;69535;37.974;23.708;2023-05-07T01:00:55;23.40;37.30
80220;DHT22;69535;37.974;23.708;2023-05-07T01:03:21;23.40;37.30
80220;DHT22;69535;37.974;23.708;2023-05-07T01:05:48;23.40;37.30
80220;DHT22;69535;37.974;23.708;2023-05-07T01:08:14;23.40;37.40
80220;DHT22;69535;37.974;23.708;2023-05-07T01:10:41;23.40;37.30
80220;DHT22;69535;37.974;23.708;2023-05-07T01:13:09;23.40;37.40
80220;DHT22;69535;37.974;23.708;2023-05-07T01:15:36;23.40;37.30
80220;DHT22;69535;37.974;23.708;2023-05-07T01:18:02;23.40;37.40
80220;DHT22;69535;37.974;23.708;2023-05-07T01:20:28;23.40;37.40
80220;DHT22;69535;37.974;23.708;2023-05-07T01:22:55;23.40;37.40
80220;DHT22;69535;37.974;23.708;2023-05-07T01:25:22;23.40;37.40
80220;DHT22;69535;37.974;23.708;2023-05-07T01:27:47;23.40;37.40
80220;DHT22;69535;37.974;23.708;2023-05-07T01:30:13;23.40;37.40
80220;DHT22;69535;37.974;23.708;2023-05-07T01:32:48;23.40;37.40
80220;DHT22;69535;37.974;23.708;2023-05-07T01:35:19;23.40;37.40
80220;DHT22;69535;37.974;23.708;2023-05-07T01:37:46;23.40;37.40
80220;DHT22;69535;37.974;23.708;2023-05-07T01:40:13;23.40;37.40
80220;DHT22;69535;37.974;23.708;2023-05-07T01:42:39;23.40;37.40
80220;DHT22;69535;37.974;23.708;2023-05-07T01:45:06;23.40;37.40
80220;DHT22;69535;37.974;23.708;2023-05-07T01:47:32;23.40;37.50
80220;DHT22;69535;37.974;23.708;2023-05-07T01:49:58;23.40;37.40
80220;DHT22;69535;37.974;23.708;2023-05-07T01:52:24;23.40;37.40
80220;DHT22;69535;37.974;23.708;2023-05-07T01:54:50;23.40;37.40
80220;DHT22;69535;37.974;23.708;2023-05-07T01:57:16;23.40;37.40
80220;DHT22;69535;37.974;23.708;2023-05-07T01:59:42;23.40;37.50
80220;DHT22;69535;37.974;23.708;2023-05-07T02:02:07;23.40;37.40
80220;DHT22;69535;37.974;23.708;2023-05-07T02:04:33;23.40;37.50
80220;DHT22;69535;37.974;23.708;2023-05-07T02:06:59;23.40;37.40
80220;DHT22;69535;37.974;23.708;2023-05-07T02:09:24;23.40;37.40
80220;DHT22;69535;37.974;23.708;2023-05-07T02:11:50;23.40;37.50
80220;DHT22;69535;37.974;23.708;2023-05-07T02:14:16;23.40;37.40
80220;DHT22;69535;37.974;23.708;2023-05-07T02:16:42;23.40;37.50
80220;DHT22;69535;37.974;23.708;2023-05-07T02:19:07;23.40;37.40
80220;DHT22;69535;37.974;23.708;2023-05-07T02:21:33;23.40;37.50
80220;DHT22;69535;37.974;23.708;2023-05-07T02:23:59;23.40;37.60
80220;DHT22;69535;37.974;23.708;2023-05-07T02:26:24;23.40;37.60
80220;DHT22;69535;37.974;23.708;2023-05-07T02:28:51;23.40;37.60
80220;DHT22;69535;37.974;23.708;2023-05-07T02:31:17;23.40;37.60
80220;DHT22;69535;37.974;23.708;2023-05-07T02:33:43;23.40;37.60
80220;DHT22;69535;37.974;23.708;2023-05-07T02:36:09;23.40;37.60
80220;DHT22;69535;37.974;23.708;2023-05-07T02:38:35;23.40;37.60
80220;DHT22;69535;37.974;23.708;2023-05-07T02:41:01;23.40;37.60
80220;DHT22;69535;37.974;23.708;2023-05-07T02:43:27;23.40;37.60
80220;DHT22;69535;37.974;23.708;2023-05-07T02:46:06;23.40;37.60
80220;DHT22;69535;37.974;23.708;2023-05-07T02:48:32;23.40;37.60
80220;DHT22;69535;37.974;23.708;2023-05-07T02:50:59;23.40;37.60
80220;DHT22;69535;37.974;23.708;2023-05-07T02:53:25;23.40;37.60
80220;DHT22;69535;37.974;23.708;2023-05-07T02:55:53;23.40;37.60
80220;DHT22;69535;37.974;23.708;2023-05-07T02:58:18;23.40;37.60
80220;DHT22;69535;37.974;23.708;2023-05-07T03:00:44;23.40;37.60
80220;DHT22;69535;37.974;23.708;2023-05-07T03:03:10;23.40;37.60
80220;DHT22;69535;37.974;23.708;2023-05-07T03:05:36;23.40;37.60
80220;DHT22;69535;37.974;23.708;2023-05-07T03:08:02;23.40;37.60
80220;DHT22;69535;37.974;23.708;2023-05-07T03:10:29;23.40;37.60
80220;DHT22;69535;37.974;23.708;2023-05-07T03:12:55;23.40;37.60
80220;DHT22;69535;37.974;23.708;2023-05-07T03:15:21;23.40;37.60
80220;DHT22;69535;37.974;23.708;2023-05-07T03:17:47;23.40;37.60
80220;DHT22;69535;37.974;23.708;2023-05-07T03:20:13;23.30;37.60
80220;DHT22;69535;37.974;23.708;2023-05-07T03:22:39;23.30;37.60
80220;DHT22;69535;37.974;23.708;2023-05-07T03:25:06;23.40;37.60
80220;DHT22;69535;37.974;23.708;2023-05-07T03:27:32;23.40;37.60
80220;DHT22;69535;37.974;23.708;2023-05-07T03:29:57;23.30;37.50
80220;DHT22;69535;37.974;23.708;2023-05-07T03:32:23;23.30;37.50
80220;DHT22;69535;37.974;23.708;2023-05-07T03:34:49;23.40;37.60
80220;DHT22;69535;37.974;23.708;2023-05-07T03:37:14;23.40;37.60
80220;DHT22;69535;37.974;23.708;2023-05-07T03:39:40;23.40;37.60
80220;DHT22;69535;37.974;23.708;2023-05-07T03:42:06;23.40;37.60
80220;DHT22;69535;37.974;23.708;2023-05-07T03:44:32;23.40;37.50
80220;DHT22;69535;37.974;23.708;2023-05-07T03:46:57;23.30;37.50
80220;DHT22;69535;37.974;23.708;2023-05-07T03:49:23;23.40;37.60
80220;DHT22;69535;37.974;23.708;2023-05-07T03:51:49;23.40;37.50
80220;DHT22;69535;37.974;23.708;2023-05-07T03:54:14;23.40;37.50
80220;DHT22;69535;37.974;23.708;2023-05-07T03:56:40;23.40;37.50
80220;DHT22;69535;37.974;23.708;2023-05-07T03:59:06;23.40;37.50
80220;DHT22;69535;37.974;23.708;2023-05-07T04:01:31;23.40;37.50
80220;DHT22;69535;37.974;23.708;2023-05-07T04:03:57;23.40;37.40
80220;DHT22;69535;37.974;23.708;2023-05-07T04:06:23;23.40;37.40
80220;DHT22;69535;37.974;23.708;2023-05-07T04:08:48;23.40;37.30
80220;DHT22;69535;37.974;23.708;2023-05-07T04:11:14;23.50;37.40
80220;DHT22;69535;37.974;23.708;2023-05-07T04:13:40;23.50;37.10
80220;DHT22;69535;37.974;23.708;2023-05-07T04:16:06;23.70;37.10
80220;DHT22;69535;37.974;23.708;2023-05-07T04:18:32;23.80;36.80
80220;DHT22;69535;37.974;23.708;2023-05-07T04:20:57;23.90;36.60
80220;DHT22;69535;37.974;23.708;2023-05-07T04:23:23;24.00;36.40
80220;DHT22;69535;37.974;23.708;2023-05-07T04:25:49;24.10;36.20
80220;DHT22;69535;37.974;23.708;2023-05-07T04:28:15;24.20;36.00
80220;DHT22;69535;37.974;23.708;2023-05-07T04:30:41;24.40;35.80
80220;DHT22;69535;37.974;23.708;2023-05-07T04:33:07;24.50;35.60
80220;DHT22;69535;37.974;23.708;2023-05-07T04:35:33;24.60;35.70
80220;DHT22;69535;37.974;23.708;2023-05-07T04:37:58;24.70;35.10
80220;DHT22;69535;37.974;23.708;2023-05-07T04:40:24;24.80;35.00
80220;DHT22;69535;37.974;23.708;2023-05-07T04:42:50;24.80;34.90
80220;DHT22;69535;37.974;23.708;2023-05-07T04:45:16;24.80;35.80
80220;DHT22;69535;37.974;23.708;2023-05-07T04:47:42;24.80;35.00
80220;DHT22;69535;37.974;23.708;2023-05-07T04:50:08;24.70;35.00
80220;DHT22;69535;37.974;23.708;2023-05-07T04:52:34;24.70;35.10
80220;DHT22;69535;37.974;23.708;2023-05-07T04:55:00;24.60;35.20
80220;DHT22;69535;37.974;23.708;2023-05-07T04:57:26;24.50;35.30
80220;DHT22;69535;37.974;23.708;2023-05-07T04:59:53;24.50;35.30
80220;DHT22;69535;37.974;23.708;2023-05-07T05:02:19;24.40;35.40
80220;DHT22;69535;37.974;23.708;2023-05-07T05:04:45;24.40;35.50
80220;DHT22;69535;37.974;23.708;2023-05-07T05:07:10;24.40;35.60
80220;DHT22;69535;37.974;23.708;2023-05-07T05:09:36;24.40;35.60
80220;DHT22;69535;37.974;23.708;2023-05-07T05:12:02;24.40;35.70
80220;DHT22;69535;37.974;23.708;2023-05-07T05:14:28;24.30;35.70
80220;DHT22;69535;37.974;23.708;2023-05-07T05:16:53;24.30;35.70
80220;DHT22;69535;37.974;23.708;2023-05-07T05:19:19;24.30;35.70
80220;DHT22;69535;37.974;23.708;2023-05-07T05:21:45;24.30;35.80
80220;DHT22;69535;37.974;23.708;2023-05-07T05:24:10;24.30;35.80
80220;DHT22;69535;37.974;23.708;2023-05-07T05:26:36;24.30;35.80
80220;DHT22;69535;37.974;23.708;2023-05-07T05:29:02;24.40;35.90
80220;DHT22;69535;37.974;23.708;2023-05-07T05:31:27;24.30;35.90
80220;DHT22;69535;37.974;23.708;2023-05-07T05:33:53;24.40;35.80
80220;DHT22;69535;37.974;23.708;2023-05-07T05:36:19;24.40;35.80
80220;DHT22;69535;37.974;23.708;2023-05-07T05:38:44;24.40;35.80
80220;DHT22;69535;37.974;23.708;2023-05-07T05:41:10;24.40;35.80
80220;DHT22;69535;37.974;23.708;2023-05-07T05:43:36;24.50;35.80
80220;DHT22;69535;37.974;23.708;2023-05-07T05:46:02;24.40;35.80
80220;DHT22;69535;37.974;23.708;2023-05-07T05:48:30;24.50;35.80
80220;DHT22;69535;37.974;23.708;2023-05-07T05:50:56;24.50;35.80
80220;DHT22;69535;37.974;23.708;2023-05-07T05:53:21;24.50;35.80
80220;DHT22;69535;37.974;23.708;2023-05-07T05:55:47;24.50;35.80
80220;DHT22;69535;37.974;23.708;2023-05-07T05:58:13;24.50;35.80
80220;DHT22;69535;37.974;23.708;2023-05-07T06:00:40;24.50;35.80
80220;DHT22;69535;37.974;23.708;2023-05-07T06:03:06;24.50;35.80
80220;DHT22;69535;37.974;23.708;2023-05-07T06:05:32;24.50;35.80
80220;DHT22;69535;37.974;23.708;2023-05-07T06:07:57;24.50;35.80
80220;DHT22;69535;37.974;23.708;2023-05-07T06:10:23;24.50;35.80
80220;DHT22;69535;37.974;23.708;2023-05-07T06:12:49;24.50;35.70
80220;DHT22;69535;37.974;23.708;2023-05-07T06:15:15;24.60;35.90
80220;DHT22;69535;37.974;23.708;2023-05-07T06:17:41;24.60;35.90
80220;DHT22;69535;37.974;23.708;2023-05-07T06:20:07;24.60;35.80
80220;DHT22;69535;37.974;23.708;2023-05-07T06:22:33;24.60;35.90
80220;DHT22;69535;37.974;23.708;2023-05-07T06:24:58;24.60;35.90
80220;DHT22;69535;37.974;23.708;2023-05-07T06:27:24;24.60;35.90
80220;DHT22;69535;37.974;23.708;2023-05-07T06:29:50;24.60;35.80
80220;DHT22;69535;37.974;23.708;2023-05-07T06:32:16;24.60;35.70
80220;DHT22;69535;37.974;23.708;2023-05-07T06:34:42;24.60;35.80
80220;DHT22;69535;37.974;23.708;2023-05-07T06:37:08;24.60;35.70
80220;DHT22;69535;37.974;23.708;2023-05-07T06:39:34;24.60;35.70
80220;DHT22;69535;37.974;23.708;2023-05-07T06:42:01;24.60;35.60
80220;DHT22;69535;37.974;23.708;2023-05-07T06:44:27;24.60;35.60
80220;DHT22;69535;37.974;23.708;2023-05-07T06:46:53;24.60;36.50
80220;DHT22;69535;37.974;23.708;2023-05-07T06:49:19;24.60;35.50
80220;DHT22;69535;37.974;23.708;2023-05-07T06:51:44;24.60;35.40
80220;DHT22;69535;37.974;23.708;2023-05-07T06:54:10;24.60;35.40
80220;DHT22;69535;37.974;23.708;2023-05-07T06:56:36;24.60;35.40
80220;DHT22;69535;37.974;23.708;2023-05-07T06:59:02;24.60;35.40
80220;DHT22;69535;37.974;23.708;2023-05-07T07:01:28;24.60;35.40
80220;DHT22;69535;37.974;23.708;2023-05-07T07:03:54;24.60;35.30
80220;DHT22;69535;37.974;23.708;2023-05-07T07:06:20;24.60;35.30
80220;DHT22;69535;37.974;23.708;2023-05-07T07:08:45;24.60;35.30
80220;DHT22;69535;37.974;23.708;2023-05-07T07:11:11;24.50;35.20
80220;DHT22;69535;37.974;23.708;2023-05-07T07:13:37;24.60;35.30
80220;DHT22;69535;37.974;23.708;2023-05-07T07:16:03;24.50;35.10
80220;DHT22;69535;37.974;23.708;2023-05-07T07:18:29;24.50;35.20
80220;DHT22;69535;37.974;23.708;2023-05-07T07:20:55;24.50;36.00
80220;DHT22;69535;37.974;23.708;2023-05-07T07:23:20;24.50;35.00
80220;DHT22;69535;37.974;23.708;2023-05-07T07:25:46;24.50;35.10
80220;DHT22;69535;37.974;23.708;2023-05-07T07:28:12;24.50;35.10
80220;DHT22;69535;37.974;23.708;2023-05-07T07:30:38;24.50;35.00
80220;DHT22;69535;37.974;23.708;2023-05-07T07:33:04;24.50;35.10
80220;DHT22;69535;37.974;23.708;2023-05-07T07:35:33;24.50;35.00
80220;DHT22;69535;37.974;23.708;2023-05-07T07:37:59;24.50;35.00
80220;DHT22;69535;37.974;23.708;2023-05-07T07:40:25;24.50;35.00
80220;DHT22;69535;37.974;23.708;2023-05-07T07:42:52;24.50;34.90
80220;DHT22;69535;37.974;23.708;2023-05-07T07:45:18;24.50;35.00
80220;DHT22;69535;37.974;23.708;2023-05-07T07:47:43;24.50;35.00
80220;DHT22;69535;37.974;23.708;2023-05-07T07:50:09;24.50;35.00
80220;DHT22;69535;37.974;23.708;2023-05-07T07:52:35;24.40;34.80
80220;DHT22;69535;37.974;23.708;2023-05-07T07:55:01;24.40;34.80
80220;DHT22;69535;37.974;23.708;2023-05-07T07:57:27;24.40;34.80
80220;DHT22;69535;37.974;23.708;2023-05-07T07:59:53;24.40;34.90
80220;DHT22;69535;37.974;23.708;2023-05-07T08:02:18;24.40;34.80
80220;DHT22;69535;37.974;23.708;2023-05-07T08:04:45;24.40;34.90
80220;DHT22;69535;37.974;23.708;2023-05-07T08:07:11;24.40;34.80
80220;DHT22;69535;37.974;23.708;2023-05-07T08:09:39;24.40;34.80
80220;DHT22;69535;37.974;23.708;2023-05-07T08:12:05;24.40;34.80
80220;DHT22;69535;37.974;23.708;2023-05-07T08:14:31;24.40;34.80
80220;DHT22;69535;37.974;23.708;2023-05-07T08:16:57;24.40;34.80
80220;DHT22;69535;37.974;23.708;2023-05-07T08:19:23;24.40;34.80
80220;DHT22;69535;37.974;23.708;2023-05-07T08:21:48;24.40;34.80
80220;DHT22;69535;37.974;23.708;2023-05-07T08:24:15;24.30;34.70
80220;DHT22;69535;37.974;23.708;2023-05-07T08:26:41;24.30;34.70
80220;DHT22;69535;37.974;23.708;2023-05-07T08:29:07;24.40;34.70
80220;DHT22;69535;37.974;23.708;2023-05-07T08:31:33;24.30;34.60
80220;DHT22;69535;37.974;23.708;2023-05-07T08:33:59;24.30;34.60
80220;DHT22;69535;37.974;23.708;2023-05-07T08:36:25;24.30;34.70
80220;DHT22;69535;37.974;23.708;2023-05-07T08:38:54;24.30;34.70
80220;DHT22;69535;37.974;23.708;2023-05-07T08:41:20;24.30;34.80
80220;DHT22;69535;37.974;23.708;2023-05-07T08:43:49;24.30;34.80
80220;DHT22;69535;37.974;23.708;2023-05-07T08:46:20;24.30;34.80
80220;DHT22;69535;37.974;23.708;2023-05-07T08:48:48;24.30;34.80
80220;DHT22;69535;37.974;23.708;2023-05-07T08:51:17;24.30;34.80
80220;DHT22;69535;37.974;23.708;2023-05-07T08:53:43;24.30;34.80
80220;DHT22;69535;37.974;23.708;2023-05-07T08:56:09;24.30;34.80
80220;DHT22;69535;37.974;23.708;2023-05-07T08:58:35;24.30;34.90
80220;DHT22;69535;37.974;23.708;2023-05-07T09:01:05;24.30;34.90
80220;DHT22;69535;37.974;23.708;2023-05-07T09:03:32;24.30;34.90
80220;DHT22;69535;37.974;23.708;2023-05-07T09:05:58;24.30;34.90
80220;DHT22;69535;37.974;23.708;2023-05-07T09:08:27;24.30;34.90
80220;DHT22;69535;37.974;23.708;2023-05-07T09:10:53;24.30;34.90
80220;DHT22;69535;37.974;23.708;2023-05-07T09:13:19;24.30;34.90
80220;DHT22;69535;37.974;23.708;2023-05-07T09:15:46;24.30;34.90
80220;DHT22;69535;37.974;23.708;2023-05-07T09:18:14;24.30;34.90
80220;DHT22;69535;37.974;23.708;2023-05-07T09:20:41;24.20;34.90
80220;DHT22;69535;37.974;23.708;2023-05-07T09:23:08;24.30;35.00
80220;DHT22;69535;37.974;23.708;2023-05-07T09:25:35;24.30;35.00
80220;DHT22;69535;37.974;23.708;2023-05-07T09:28:02;24.20;34.80
80220;DHT22;69535;37.974;23.708;2023-05-07T09:30:31;24.20;34.90
80220;DHT22;69535;37.974;23.708;2023-05-07T09:33:02;24.30;34.90
80220;DHT22;69535;37.974;23.708;2023-05-07T09:35:29;24.20;34.90
80220;DHT22;69535;37.974;23.708;2023-05-07T09:37:59;24.20;34.90
80220;DHT22;69535;37.974;23.708;2023-05-07T09:40:28;24.20;34.90
80220;DHT22;69535;37.974;23.708;2023-05-07T09:42:55;24.20;34.90
80220;DHT22;69535;37.974;23.708;2023-05-07T09:45:30;24.20;34.90
80220;DHT22;69535;37.974;23.708;2023-05-07T09:47:58;24.20;34.80
80220;DHT22;69535;37.974;23.708;2023-05-07T09:50:28;24.20;34.80
80220;DHT22;69535;37.974;23.708;2023-05-07T09:52:55;24.20;34.80
80220;DHT22;69535;37.974;23.708;2023-05-07T09:55:22;24.20;34.80
80220;DHT22;69535;37.974;23.708;2023-05-07T09:57:52;24.20;34.70
80220;DHT22;69535;37.974;23.708;2023-05-07T10:00:22;24.20;34.70
80220;DHT22;69535;37.974;23.708;2023-05-07T10:02:52;24.20;34.70
80220;DHT22;69535;37.974;23.708;2023-05-07T10:05:18;24.20;34.70
80220;DHT22;69535;37.974;23.708;2023-05-07T10:07:46;24.20;34.70
80220;DHT22;69535;37.974;23.708;2023-05-07T10:10:12;24.20;34.60
80220;DHT22;69535;37.974;23.708;2023-05-07T10:12:38;24.20;34.60
80220;DHT22;69535;37.974;23.708;2023-05-07T10:15:09;24.20;34.60
80220;DHT22;69535;37.974;23.708;2023-05-07T10:17:40;24.20;34.60
80220;DHT22;69535;37.974;23.708;2023-05-07T10:20:07;24.20;34.60
80220;DHT22;69535;37.974;23.708;2023-05-07T10:22:43;24.20;34.60
80220;DHT22;69535;37.974;23.708;2023-05-07T10:25:16;24.20;34.60
80220;DHT22;69535;37.974;23.708;2023-05-07T10:27:43;24.10;34.40
80220;DHT22;69535;37.974;23.708;2023-05-07T10:33:07;24.20;34.60
80220;DHT22;69535;37.974;23.708;2023-05-07T10:35:42;24.20;34.70
80220;DHT22;69535;37.974;23.708;2023-05-07T10:38:08;24.20;34.70
80220;DHT22;69535;37.974;23.708;2023-05-07T10:40:35;24.10;34.60
80220;DHT22;69535;37.974;23.708;2023-05-07T10:43:02;24.10;34.60
80220;DHT22;69535;37.974;23.708;2023-05-07T10:45:30;24.10;34.50
80220;DHT22;69535;37.974;23.708;2023-05-07T10:48:16;24.10;34.60
80220;DHT22;69535;37.974;23.708;2023-05-07T10:50:43;24.20;34.60
80220;DHT22;69535;37.974;23.708;2023-05-07T10:55:51;24.20;34.60
80220;DHT22;69535;37.974;23.708;2023-05-07T10:58:25;24.20;34.70
80220;DHT22;69535;37.974;23.708;2023-05-07T11:00:57;24.20;34.60
80220;DHT22;69535;37.974;23.708;2023-05-07T11:03:22;24.10;34.50
80220;DHT22;69535;37.974;23.708;2023-05-07T11:11:19;24.10;34.50
80220;DHT22;69535;37.974;23.708;2023-05-07T11:13:48;24.10;34.50
80220;DHT22;69535;37.974;23.708;2023-05-07T11:16:22;24.10;34.40
80220;DHT22;69535;37.974;23.708;2023-05-07T11:18:55;24.10;34.50
80220;DHT22;69535;37.974;23.708;2023-05-07T11:21:36;24.10;34.50
80220;DHT22;69535;37.974;23.708;2023-05-07T11:24:04;24.20;34.50
80220;DHT22;69535;37.974;23.708;2023-05-07T11:29:20;24.20;34.40
80220;DHT22;69535;37.974;23.708;2023-05-07T11:31:53;24.10;34.40
80220;DHT22;69535;37.974;23.708;2023-05-07T11:34:24;24.10;34.40
80220;DHT22;69535;37.974;23.708;2023-05-07T11:36:50;24.10;34.40
80220;DHT22;69535;37.974;23.708;2023-05-07T11:39:30;24.10;34.50
80220;DHT22;69535;37.974;23.708;2023-05-07T11:41:59;24.10;35.30
80220;DHT22;69535;37.974;23.708;2023-05-07T11:44:25;24.10;34.40
80220;DHT22;69535;37.974;23.708;2023-05-07T11:46:50;24.10;34.40
80220;DHT22;69535;37.974;23.708;2023-05-07T11:49:17;24.10;34.40
80220;DHT22;69535;37.974;23.708;2023-05-07T11:51:43;24.10;34.40
80220;DHT22;69535;37.974;23.708;2023-05-07T11:54:09;24.10;34.30
80220;DHT22;69535;37.974;23.708;2023-05-07T11:56:37;24.10;34.40
80220;DHT22;69535;37.974;23.708;2023-05-07T11:59:03;24.10;34.40
80220;DHT22;69535;37.974;23.708;2023-05-07T12:01:29;24.20;34.40
80220;DHT22;69535;37.974;23.708;2023-05-07T12:03:54;24.10;34.30
80220;DHT22;69535;37.974;23.708;2023-05-07T12:06:20;24.10;34.30
80220;DHT22;69535;37.974;23.708;2023-05-07T12:08:46;24.10;34.30
80220;DHT22;69535;37.974;23.708;2023-05-07T12:11:21;24.10;34.40
80220;DHT22;69535;37.974;23.708;2023-05-07T12:13:47;24.10;34.30
80220;DHT22;69535;37.974;23.708;2023-05-07T12:16:14;24.10;34.30
80220;DHT22;69535;37.974;23.708;2023-05-07T12:18:40;24.10;34.30
80220;DHT22;69535;37.974;23.708;2023-05-07T12:21:06;24.10;34.30
80220;DHT22;69535;37.974;23.708;2023-05-07T12:23:36;24.10;34.30
80220;DHT22;69535;37.974;23.708;2023-05-07T12:26:02;24.10;34.30
80220;DHT22;69535;37.974;23.708;2023-05-07T12:28:28;24.10;34.30
80220;DHT22;69535;37.974;23.708;2023-05-07T12:30:54;24.10;34.30
80220;DHT22;69535;37.974;23.708;2023-05-07T12:33:25;24.10;34.40
80220;DHT22;69535;37.974;23.708;2023-05-07T12:35:54;24.10;34.30
80220;DHT22;69535;37.974;23.708;2023-05-07T12:38:19;24.10;34.30
80220;DHT22;69535;37.974;23.708;2023-05-07T12:40:47;24.10;34.30
80220;DHT22;69535;37.974;23.708;2023-05-07T12:43:26;24.10;34.30
80220;DHT22;69535;37.974;23.708;2023-05-07T12:45:57;24.10;34.30
80220;DHT22;69535;37.974;23.708;2023-05-07T12:48:24;24.10;34.40
80220;DHT22;69535;37.974;23.708;2023-05-07T12:50:56;24.10;34.30
80220;DHT22;69535;37.974;23.708;2023-05-07T12:53:24;24.10;34.30
80220;DHT22;69535;37.974;23.708;2023-05-07T12:55:53;24.10;34.30
80220;DHT22;69535;37.974;23.708;2023-05-07T12:58:29;24.10;34.30
80220;DHT22;69535;37.974;23.708;2023-05-07T13:00:58;24.10;34.20
80220;DHT22;69535;37.974;23.708;2023-05-07T13:03:32;24.10;34.20
80220;DHT22;69535;37.974;23.708;2023-05-07T13:06:02;24.10;35.10
80220;DHT22;69535;37.974;23.708;2023-05-07T13:10:53;24.10;34.20
80220;DHT22;69535;37.974;23.708;2023-05-07T13:13:20;24.10;34.20
80220;DHT22;69535;37.974;23.708;2023-05-07T13:15:47;24.10;34.20
80220;DHT22;69535;37.974;23.708;2023-05-07T13:18:13;24.10;34.20
80220;DHT22;69535;37.974;23.708;2023-05-07T13:20:38;24.10;34.10
80220;DHT22;69535;37.974;23.708;2023-05-07T13:23:04;24.10;34.10
80220;DHT22;69535;37.974;23.708;2023-05-07T13:25:30;24.10;34.20
80220;DHT22;69535;37.974;23.708;2023-05-07T13:27:59;24.10;34.10
80220;DHT22;69535;37.974;23.708;2023-05-07T13:30:25;24.10;34.10
80220;DHT22;69535;37.974;23.708;2023-05-07T13:32:51;24.10;34.10
80220;DHT22;69535;37.974;23.708;2023-05-07T13:35:17;24.10;34.50
80220;DHT22;69535;37.974;23.708;2023-05-07T13:37:43;24.10;34.10
80220;DHT22;69535;37.974;23.708;2023-05-07T13:40:09;24.10;34.00
80220;DHT22;69535;37.974;23.708;2023-05-07T13:42:35;24.10;34.00
80220;DHT22;69535;37.974;23.708;2023-05-07T13:45:01;24.10;34.00
80220;DHT22;69535;37.974;23.708;2023-05-07T13:47:28;24.10;34.00
80220;DHT22;69535;37.974;23.708;2023-05-07T13:49:54;24.10;34.00
80220;DHT22;69535;37.974;23.708;2023-05-07T13:52:19;24.10;34.00
80220;DHT22;69535;37.974;23.708;2023-05-07T13:54:45;24.10;34.00
80220;DHT22;69535;37.974;23.708;2023-05-07T13:57:11;24.10;34.00
80220;DHT22;69535;37.974;23.708;2023-05-07T13:59:37;24.10;34.00
80220;DHT22;69535;37.974;23.708;2023-05-07T14:02:03;24.10;34.00
80220;DHT22;69535;37.974;23.708;2023-05-07T14:04:30;24.10;34.00
80220;DHT22;69535;37.974;23.708;2023-05-07T14:06:56;24.10;33.90
80220;DHT22;69535;37.974;23.708;2023-05-07T14:09:21;24.10;34.80
80220;DHT22;69535;37.974;23.708;2023-05-07T14:11:47;24.10;34.00
80220;DHT22;69535;37.974;23.708;2023-05-07T14:14:17;24.10;34.00
80220;DHT22;69535;37.974;23.708;2023-05-07T14:16:42;24.10;34.00
80220;DHT22;69535;37.974;23.708;2023-05-07T14:19:08;24.10;34.00
80220;DHT22;69535;37.974;23.708;2023-05-07T14:21:34;24.10;34.00
80220;DHT22;69535;37.974;23.708;2023-05-07T14:23:59;24.10;34.00
80220;DHT22;69535;37.974;23.708;2023-05-07T14:26:25;24.10;33.90
80220;DHT22;69535;37.974;23.708;2023-05-07T14:28:52;24.10;33.90
80220;DHT22;69535;37.974;23.708;2023-05-07T14:31:20;24.10;33.90
80220;DHT22;69535;37.974;23.708;2023-05-07T14:33:46;24.10;33.90
80220;DHT22;69535;37.974;23.708;2023-05-07T14:36:12;24.10;33.90
80220;DHT22;69535;37.974;23.708;2023-05-07T14:38:38;24.10;33.90
80220;DHT22;69535;37.974;23.708;2023-05-07T14:41:03;24.10;33.90
80220;DHT22;69535;37.974;23.708;2023-05-07T14:43:29;24.10;33.90
80220;DHT22;69535;37.974;23.708;2023-05-07T14:45:55;24.10;33.90
80220;DHT22;69535;37.974;23.708;2023-05-07T14:48:20;24.10;33.80
80220;DHT22;69535;37.974;23.708;2023-05-07T14:50:49;24.00;33.80
80220;DHT22;69535;37.974;23.708;2023-05-07T14:53:15;24.10;33.80
80220;DHT22;69535;37.974;23.708;2023-05-07T14:55:41;24.10;33.80
80220;DHT22;69535;37.974;23.708;2023-05-07T14:58:07;24.10;33.80
80220;DHT22;69535;37.974;23.708;2023-05-07T15:00:33;24.10;33.80
80220;DHT22;69535;37.974;23.708;2023-05-07T15:03:05;24.10;33.80
80220;DHT22;69535;37.974;23.708;2023-05-07T15:05:32;24.10;33.70
80220;DHT22;69535;37.974;23.708;2023-05-07T15:07:58;24.00;33.80
80220;DHT22;69535;37.974;23.708;2023-05-07T15:10:24;24.00;33.80
80220;DHT22;69535;37.974;23.708;2023-05-07T15:12:49;24.00;33.80
80220;DHT22;69535;37.974;23.708;2023-05-07T15:15:15;24.00;33.70
80220;DHT22;69535;37.974;23.708;2023-05-07T15:17:41;24.00;33.60
80220;DHT22;69535;37.974;23.708;2023-05-07T15:20:07;24.00;33.60
80220;DHT22;69535;37.974;23.708;2023-05-07T15:22:33;24.00;33.60
80220;DHT22;69535;37.974;23.708;2023-05-07T15:24:59;24.00;33.60
80220;DHT22;69535;37.974;23.708;2023-05-07T15:27:25;24.00;33.60